juin
30

MX LIVE (FIM) : LES QUALIFICATIONS DU GP DE SUÈDE EN DIRECT

MX1 – Qualifying Race – Classification
Pos Nr Rider Nat. Fed. Bike Time laps Diff. First Diff. Prev. Bestlaptime in lap Speed

1 222 Cairoli, Antonio ITA FMI KTM 25:16.805 12 0:00.000 0:00.000 1:55.004 12 47.362
2 777 Bobryshev, Evgeny RUS MFR Honda 25:18.703 12 0:01.898 0:01.898 1:55.080 12 47.331
3 25 Desalle, Clement BEL FMB Suzuki 25:32.343 12 0:15.538 0:13.640 1:55.056 9 47.34
4 24 Simpson, Shaun GBR ACU Yamaha 25:36.566 12 0:19.761 0:04.223 1:56.275 2 46.844
5 377 Pourcel, Christophe FRA FFM Kawasaki 25:53.150 12 0:36.345 0:16.584 1:56.963 4 46.569
6 11 Pourcel, Sebastien FRA FFM Kawasaki 25:58.717 12 0:41.912 0:05.567 1:56.673 8 46.684
7 19 Philippaerts, David ITA FMI Yamaha 26:01.698 12 0:44.893 0:02.981 1:57.697 4 46.278
8 7 Barragan, Jonathan ESP RFME Honda 26:04.338 12 0:47.533 0:02.640 1:57.395 12 46.397
9 4 Leok, Tanel EST EMF Suzuki 26:07.147 12 0:50.342 0:02.809 1:57.452 10 46.375
10 22 Strijbos, Kevin BEL FMB KTM 26:10.057 12 0:53.252 0:02.910 1:58.552 10 45.944
11 39 Guarneri, Davide ITA FMI KTM 26:14.754 12 0:57.949 0:04.697 1:58.773 11 45.859
12 121 Boog, Xavier FRA FFM Kawasaki 26:15.390 12 0:58.585 0:00.636 1:56.460 11 46.77
13 21 Paulin, Gautier FRA MCM Kawasaki 26:17.288 12 1:00.483 0:01.898 1:58.508 6 45.961
14 9 de Dycker, Ken BEL FMB KTM 26:19.599 12 1:02.794 0:02.311 1:56.789 9 46.638
15 120 Soubeyras, Cedric FRA FFM Honda 26:22.031 12 1:05.226 0:02.432 1:58.293 6 46.045
16 44 Lindstrom, Kim SWE SVEMO Kawasaki 26:43.887 12 1:27.082 0:21.856 2:00.379 4 45.247
17 36 Bonini, Matteo ITA FMI KTM 26:52.543 12 1:35.738 0:08.656 1:59.946 10 45.41
18 212 de Reuver, Mark NED KNMV Kawasaki 26:57.204 12 1:40.399 0:04.661 2:00.774 2 45.099
19 10 Boissiere, Anthony FRA FFM TM 26:59.438 12 1:42.633 0:02.234 2:02.101 7 44.609
20 112 Law, Jamie GBR ACU KTM 27:01.673 12 1:44.868 0:02.235 2:02.579 7 44.435
21 17 Söderström, Tom SWE SVEMO Honda 27:12.744 12 1:55.939 0:11.071 2:01.525 6 44.82
22 170 Macuks, Toms LAT LAMSF Suzuki 27:23.856 12 2:07.051 0:11.112 2:02.572 8 44.438
23 999 Goncalves, Rui POR FMP Honda 25:20.205 11 1 lap 1 lap 2:02.598 4 44.428
24 67 Tiainen, Santtu FIN SML Kawasaki 25:28.429 11 1 lap 0:08.224 2:02.308 6 44.533
25 41 Smith, Alfie GBR ACU Yamaha 25:31.485 11 1 lap 0:03.056 2:03.548 8 44.087
26 95 Justs, Augusts LAT LAMSF Honda 25:41.879 11 1 lap 0:10.394 2:03.731 3 44.021
27 198 Bucas, Vytautas LTU LMSF Honda 25:45.750 11 1 lap 0:03.871 2:04.748 6 43.662
28 153 Johnsson, Tom SWE SVEMO Suzuki 25:49.991 11 1 lap 0:04.241 2:05.996 7 43.23
29 611 Cociu, Mihail MDA FMI KTM 26:23.602 11 1 lap 0:33.611 2:08.822 3 42.282
30 152 Gustavsson, Niclas SWE SVEMO Honda 26:39.053 11 1 lap 0:15.451 2:06.446 6 43.076
31 171 Bertuzzo, Pier Filippo ITA FMI Honda 26:05.739 10 2 laps 1 lap 2:05.181 2 43.511
32 16 Hansen, Nicolai DEN DMU Suzuki 18:49.865 8 4 laps 2 laps 2:01.937 6 44.669
33 61 Brakke, Herjan NED KNMV Yamaha 16:24.231 7 5 laps 1 lap 1:59.886 6 45.433
34 291 Thuresson, Filip SWE SVEMO Honda 15:27.522 6 6 laps 1 lap 2:01.853 5 44.7
35 32 Potisek, Milko FRA FFM Honda 10:00.720 4 8 laps 2 laps 1:58.215 4 46.075

MX2 – Qualifying Race – Classification
Pos Nr Rider Nat. Fed. Bike Time laps Diff. First Diff. Prev. Bestlaptime in lap Speed

1 84 Herlings, Jeffrey NED KNMV KTM 25:18.992 12 0:00.000 0:00.000 1:53.977 3 47.789
2 7 Tonus, Arnaud SUI FMS Yamaha 25:21.177 12 0:02.185 0:02.185 1:54.929 3 47.393
3 100 Searle, Tommy GBR ACU Kawasaki 25:26.443 12 0:07.451 0:05.266 1:54.167 3 47.709
4 89 van Horebeek, Jeremy BEL FMB KTM 25:26.729 12 0:07.737 0:00.286 1:54.762 3 47.462
5 338 Osborne, Zachary USA ACU Yamaha 25:56.906 12 0:37.914 0:30.177 1:57.514 7 46.35
6 22 Ferrandis, Dylan FRA FFM Kawasaki 25:59.918 12 0:40.926 0:03.012 1:58.143 3 46.103
7 34 Roelants, Joel BEL FMB Kawasaki 26:03.518 12 0:44.526 0:03.600 1:57.600 5 46.316
8 45 Nicholls, Jake GBR ACU KTM 26:06.101 12 0:47.109 0:02.583 1:58.146 7 46.102
9 911 Tixier, Jordi FRA FFM KTM 26:09.595 12 0:50.603 0:03.494 1:58.510 7 45.961
10 173 Guillod, Valentin SUI FMS KTM 26:32.126 12 1:13.134 0:22.531 1:58.167 4 46.094
11 152 Petrov, Petar BUL BMF Suzuki 26:44.176 12 1:25.184 0:12.050 2:00.015 2 45.384
12 25 Coldenhoff, Glenn NED KNMV KTM 26:51.072 12 1:32.080 0:06.896 1:59.097 1 45.734
13 77 Lupino, Alessandro ITA FMI Husqvarna 26:53.891 12 1:34.899 0:02.819 2:01.247 5 44.923
14 260 Nyegaard, Remi NOR NMF Kawasaki 26:58.091 12 1:39.099 0:04.200 2:01.883 5 44.689
15 23 Charlier, Christophe FRA FFM Yamaha 27:00.615 12 1:41.623 0:02.524 2:01.197 9 44.942
16 249 Larsen, Nikolaj DEN DMU Suzuki 27:20.488 12 2:01.496 0:19.873 2:01.704 2 44.754
17 101 Zeni, Samuel ITA FMI Yamaha 27:26.548 12 2:07.556 0:06.060 2:00.976 2 45.024
18 33 Lieber, Julien BEL FMB KTM 25:22.522 11 1 lap 1 lap 2:03.673 2 44.042
19 103 Vandueren, Kenny BEL FMB Yamaha 25:24.075 11 1 lap 0:01.553 2:04.179 2 43.862
20 600 Ivanovs, Davis LAT LAMSF Kawasaki 25:37.534 11 1 lap 0:13.459 2:04.257 2 43.835
21 294 Björklund, Viktor SWE SVEMO Suzuki 25:39.838 11 1 lap 0:02.304 2:02.265 1 44.549
22 128 Monticelli, Ivo ITA FMI Suzuki 25:46.654 11 1 lap 0:06.816 2:03.479 9 44.111
23 221 Rätsep, Priit EST EMF KTM 25:48.546 11 1 lap 0:01.892 2:04.685 4 43.684
24 707 Kappel, Robin FRA FFM KTM 25:53.321 11 1 lap 0:04.775 2:04.111 5 43.887
25 39 Hjortmarker, Eddie SWE SVEMO Suzuki 25:59.772 11 1 lap 0:06.451 2:03.134 2 44.235
26 300 Golovkin, Viacheslav RUS LAMSF Kawasaki 26:04.681 11 1 lap 0:04.909 2:06.728 3 42.98
27 171 Satink, Rick NED KNMV Honda 26:05.860 11 1 lap 0:01.179 2:05.973 2 43.238
28 247 Jonsson, Jesper SWE SVEMO Suzuki 26:10.243 11 1 lap 0:04.383 2:05.239 4 43.491
29 922 Fors, Kevin BEL FMB Yamaha 26:26.747 11 1 lap 0:16.504 2:01.687 2 44.761
30 142 Paturel, Benoit FRA FFM Kawasaki 26:30.138 11 1 lap 0:03.391 2:03.863 2 43.974
31 347 Jönsson, Pontus SWE SVEMO Suzuki 27:15.209 11 1 lap 0:45.071 2:04.928 3 43.6
32 6 Anstie, Max GBR AMA Honda 24:47.786 10 2 laps 1 lap 1:59.223 4 45.686
33 51 Getteman, Jens BEL FMB Suzuki 25:33.616 10 2 laps 0:45.830 2:01.867 3 44.695
34 461 Febvre, Romain FRA FFM KTM 18:11.652 8 4 laps 2 laps 1:58.207 1 46.078
35 66 Tonkov, Alexander RUS MFR Honda 17:14.203 7 5 laps 1 lap 2:02.168 1 44.585
36 141 Cervellin, Andrea ITA FMI TM 17:40.696 7 5 laps 0:26.493 2:04.241 2 43.841
37 116 Olsson, Oscar SWE SVEMO KTM 18:58.401 7 5 laps 1:17.705 2:05.577 1 43.374
38 151 Kullas, Harri FIN SML Suzuki 4:10.464 1 11 laps 6 laps 2:00.619 1 45.157
39 12 Zecchina, Simone ITA FMI Yamaha 4:23.744 1 11 laps 0:13.280 2:06.046 1 43.213

EMX 125 – Race 1 – Classification
Pos Nr Rider Nat. Fed. Bike Time laps Diff. First Diff. Prev. Bestlaptime in lap Speed

1 243 Gajser, Tim SLO AMZS KTM 29:55.431 14 0:00.000 0:00.000 1:58.004 6 46.158
2 141 Jonass, Pauls LAT LAMSF KTM 30:26.057 14 0:30.626 0:30.626 1:58.942 2 45.794
3 274 Lundgren, Anton SWE SVEMO KTM 30:30.697 14 0:35.266 0:04.640 2:00.551 2 45.183
4 200 Dunn, James GBR ACU KTM 30:33.259 14 0:37.828 0:02.562 1:59.721 14 45.496
5 95 Furlotti, Simone ITA FMI Suzuki 30:51.799 14 0:56.368 0:18.540 2:02.016 5 44.64
6 100 Klingsheim, Magne NOR NMF KTM 30:58.452 14 1:03.021 0:06.653 2:00.514 5 45.196
7 114 Della Mora, Alessio ITA FMI KTM 30:59.491 14 1:04.060 0:01.039 2:02.211 4 44.569
8 999 Bonini, Davide ITA FMI KTM 31:08.028 14 1:12.597 0:08.537 2:02.674 5 44.401
9 997 Righi, Riccardo ITA FMI KTM 31:10.833 14 1:15.402 0:02.805 2:02.568 8 44.439
10 79 Corneth, Jaap NED KNMV KTM 31:11.394 14 1:15.963 0:00.561 2:02.423 4 44.492
11 112 Vlaanderen, Calvin NED KNMV KTM 31:12.275 14 1:16.844 0:00.881 2:02.320 14 44.529
12 61 Östlund, Alvin SWE SVEMO Yamaha 31:15.411 14 1:19.980 0:03.136 2:02.910 14 44.315
13 183 Renkens, Nathan BEL FMB Yamaha 31:17.092 14 1:21.661 0:01.681 2:02.410 9 44.496
14 81 Larranaga, Iker ESP RFME Suzuki 31:19.951 14 1:24.520 0:02.859 2:02.807 13 44.353
15 101 Kovar, Vaclav CZE ACCR KTM 31:20.350 14 1:24.919 0:00.399 2:02.384 14 44.506
16 161 Brevers, Ludovic BEL FMB Yamaha 31:22.461 14 1:27.030 0:02.111 2:02.728 14 44.381
17 29 Jacobi, Henry GER DMSB KTM 31:30.972 14 1:35.541 0:08.511 2:02.288 10 44.541
18 56 Ebbers, Jeffrey NED KNMV Yamaha 31:42.736 14 1:47.305 0:11.764 2:04.204 4 43.854
19 191 Podmol, Filip CZE ACCR KTM 31:45.595 14 1:50.164 0:02.859 2:04.892 11 43.612
20 64 Damiaens, Dietger BEL FMB KTM 31:46.122 14 1:50.691 0:00.527 2:03.343 4 44.16
21 24 Bjerregaard, Nichlas DEN DMU Yamaha 31:53.306 14 1:57.875 0:07.184 2:04.482 10 43.756
22 118 van Mechelen, Joel NED KNMV KTM 31:54.570 14 1:59.139 0:01.264 2:04.666 14 43.691
23 511 Andersson, William SWE SVEMO KTM 30:01.507 13 1 lap 1 lap 2:04.454 9 43.766
24 198 Kaipanen, Mikael FIN SML KTM 30:03.076 13 1 lap 0:01.569 2:05.467 7 43.412
25 148 Eccles, Michael GBR ACU KTM 30:11.180 13 1 lap 0:08.104 2:05.132 4 43.528
26 77 Jasikonis, Arminas LTU LMSF KTM 30:12.687 13 1 lap 0:01.507 2:05.975 10 43.237
27 16 Adams, Nicholas RSA ACU KTM 30:13.603 13 1 lap 0:00.916 2:05.653 9 43.348
28 17 te Beest, Mike NED KNMV KTM 30:13.692 13 1 lap 0:00.089 2:05.635 4 43.354
29 76 Roosiorg, Henri EST EMF KTM 30:20.099 13 1 lap 0:06.407 2:06.869 6 42.932
30 428 Hansen, Andreas DEN DMU Yamaha 30:21.183 13 1 lap 0:01.084 2:05.644 5 43.351
31 84 van den Mierden, Sven NED KNMV KTM 30:28.731 13 1 lap 0:07.548 2:06.421 4 43.085
32 197 Gole, Anton SWE SVEMO KTM 30:37.536 13 1 lap 0:08.805 2:06.599 4 43.024
33 278 Vermijl, Thomas BEL FMB KTM 30:43.732 13 1 lap 0:06.196 2:07.096 2 42.856
34 156 van Nobelen, Jordi NED KNMV KTM 30:45.758 13 1 lap 0:02.026 2:07.912 4 42.582
35 32 Christensen, Nikolaj DEN DMU KTM 30:47.742 13 1 lap 0:01.984 2:07.456 7 42.735
36 8 Deghi, Gianluca ITA FMI KTM 31:02.659 13 1 lap 0:14.917 2:08.443 8 42.406
37 12 Hansen, Sindre NOR NMF KTM 31:07.066 13 1 lap 0:04.407 2:07.924 3 42.578
38 379 Ahl, Alexander SWE SVEMO Suzuki 30:47.072 12 2 laps 1 lap 2:10.386 5 41.774
39 223 De Pietri, Tommaso ITA FMI Suzuki 29:40.118 10 4 laps 2 laps 2:08.878 6 42.263
40 316 Ecca, Gianluca GER DMSB Suzuki 15:44.809 6 8 laps 4 laps 2:09.199 3 42.158

A voir aussi :

Le commentaires sont fermés.